Terminal Aerodrome Forecast
Issued by NWS Louisville, KY

Home | Current Version | Previous Version | Text Only | Print | Product List | Glossary On
Versions: 1 2 3 4 5 6 7 8 9 10 11 12 13 14 15 16 17
000
FTUS43 KLMK 251739
TAFSDF
TAF
KSDF 251739Z 2518/2624 20010G17KT P6SM SCT060 BKN100
     FM251930 20010KT 6SM -SHRA SCT050 BKN100
     FM252330 18004KT 6SM HZ SCT060 BKN100
     FM261500 21010G17KT P6SM BKN050=

USA.gov is the U.S. government's official web portal to all federal, state and local government web resources and services.